sensor_id;sensor_type;location;lat;lon;timestamp;pressure;altitude;pressure_sealevel;temperature;humidity
11808;BME280;5961;42.640;23.380;2022-12-24T00:01:44;93882.66;;;4.85;98.29
11808;BME280;5961;42.640;23.380;2022-12-24T00:04:11;93894.22;;;4.97;98.17
11808;BME280;5961;42.640;23.380;2022-12-24T00:06:38;93881.00;;;4.89;98.03
11808;BME280;5961;42.640;23.380;2022-12-24T00:09:04;93881.16;;;4.92;97.98
11808;BME280;5961;42.640;23.380;2022-12-24T00:11:31;93880.22;;;4.88;97.58
11808;BME280;5961;42.640;23.380;2022-12-24T00:13:58;93878.97;;;4.86;97.92
11808;BME280;5961;42.640;23.380;2022-12-24T00:16:24;93885.09;;;4.81;97.11
11808;BME280;5961;42.640;23.380;2022-12-24T00:18:52;93878.78;;;4.82;97.18
11808;BME280;5961;42.640;23.380;2022-12-24T00:21:19;93876.50;;;4.67;97.49
11808;BME280;5961;42.640;23.380;2022-12-24T00:23:46;93863.56;;;4.57;97.53
11808;BME280;5961;42.640;23.380;2022-12-24T00:26:13;93888.09;;;4.66;98.06
11808;BME280;5961;42.640;23.380;2022-12-24T00:28:40;93885.59;;;4.61;97.24
11808;BME280;5961;42.640;23.380;2022-12-24T00:31:08;93876.03;;;4.65;97.66
11808;BME280;5961;42.640;23.380;2022-12-24T00:33:35;93884.38;;;4.67;97.73
11808;BME280;5961;42.640;23.380;2022-12-24T00:36:04;93879.94;;;4.54;98.02
11808;BME280;5961;42.640;23.380;2022-12-24T00:38:30;93876.97;;;4.47;99.63
11808;BME280;5961;42.640;23.380;2022-12-24T00:40:58;93870.78;;;4.52;99.10
11808;BME280;5961;42.640;23.380;2022-12-24T00:43:26;93876.84;;;4.52;99.46
11808;BME280;5961;42.640;23.380;2022-12-24T00:45:52;93870.25;;;4.41;99.89
11808;BME280;5961;42.640;23.380;2022-12-24T00:48:19;93884.47;;;4.40;99.77
11808;BME280;5961;42.640;23.380;2022-12-24T00:50:47;93877.66;;;4.39;100.00
11808;BME280;5961;42.640;23.380;2022-12-24T00:53:15;93872.03;;;4.32;100.00
11808;BME280;5961;42.640;23.380;2022-12-24T00:55:42;93880.03;;;4.27;100.00
11808;BME280;5961;42.640;23.380;2022-12-24T00:58:08;93877.78;;;4.20;100.00
11808;BME280;5961;42.640;23.380;2022-12-24T01:00:35;93875.47;;;4.19;100.00
11808;BME280;5961;42.640;23.380;2022-12-24T01:03:02;93880.63;;;4.24;100.00
11808;BME280;5961;42.640;23.380;2022-12-24T01:05:28;93877.25;;;4.10;100.00
11808;BME280;5961;42.640;23.380;2022-12-24T01:07:54;93883.56;;;4.09;100.00
11808;BME280;5961;42.640;23.380;2022-12-24T01:10:22;93877.25;;;4.10;100.00
11808;BME280;5961;42.640;23.380;2022-12-24T01:12:49;93874.72;;;3.91;100.00
11808;BME280;5961;42.640;23.380;2022-12-24T01:15:15;93872.56;;;3.93;100.00
11808;BME280;5961;42.640;23.380;2022-12-24T01:17:42;93874.03;;;3.99;100.00
11808;BME280;5961;42.640;23.380;2022-12-24T01:20:13;93886.38;;;4.12;100.00
11808;BME280;5961;42.640;23.380;2022-12-24T01:22:40;93876.66;;;4.13;100.00
11808;BME280;5961;42.640;23.380;2022-12-24T01:25:07;93882.00;;;4.21;100.00
11808;BME280;5961;42.640;23.380;2022-12-24T01:27:36;93884.09;;;4.33;100.00
11808;BME280;5961;42.640;23.380;2022-12-24T01:30:05;93870.25;;;4.41;100.00
11808;BME280;5961;42.640;23.380;2022-12-24T01:32:32;93863.97;;;4.51;100.00
11808;BME280;5961;42.640;23.380;2022-12-24T01:34:59;93818.66;;;4.31;100.00
11808;BME280;5961;42.640;23.380;2022-12-24T01:37:26;93861.47;;;4.68;100.00
11808;BME280;5961;42.640;23.380;2022-12-24T01:39:53;93873.03;;;4.80;100.00
11808;BME280;5961;42.640;23.380;2022-12-24T01:42:44;93888.09;;;4.88;100.00
11808;BME280;5961;42.640;23.380;2022-12-24T01:45:40;93887.50;;;4.91;100.00
11808;BME280;5961;42.640;23.380;2022-12-24T01:48:16;93875.13;;;4.92;100.00
11808;BME280;5961;42.640;23.380;2022-12-24T01:50:45;93881.81;;;4.98;100.00
11808;BME280;5961;42.640;23.380;2022-12-24T01:53:13;93879.84;;;5.04;100.00
11808;BME280;5961;42.640;23.380;2022-12-24T01:55:41;93884.97;;;5.09;100.00
11808;BME280;5961;42.640;23.380;2022-12-24T01:58:11;93880.34;;;5.14;100.00
11808;BME280;5961;42.640;23.380;2022-12-24T02:00:39;93885.34;;;5.16;99.38
11808;BME280;5961;42.640;23.380;2022-12-24T02:03:06;93880.06;;;5.16;99.43
11808;BME280;5961;42.640;23.380;2022-12-24T02:05:37;93870.47;;;5.20;100.00
11808;BME280;5961;42.640;23.380;2022-12-24T02:08:07;93865.53;;;5.27;100.00
11808;BME280;5961;42.640;23.380;2022-12-24T02:10:35;93852.34;;;5.18;99.83
11808;BME280;5961;42.640;23.380;2022-12-24T02:13:03;93867.09;;;5.28;99.87
11808;BME280;5961;42.640;23.380;2022-12-24T02:15:39;93864.75;;;5.26;99.32
11808;BME280;5961;42.640;23.380;2022-12-24T02:18:20;93857.78;;;5.22;99.82
11808;BME280;5961;42.640;23.380;2022-12-24T02:21:11;93875.00;;;5.28;99.49
11808;BME280;5961;42.640;23.380;2022-12-24T02:24:14;93875.56;;;5.16;99.56
11808;BME280;5961;42.640;23.380;2022-12-24T02:30:00;93873.59;;;5.22;98.79
11808;BME280;5961;42.640;23.380;2022-12-24T02:32:34;93869.34;;;5.12;99.69
11808;BME280;5961;42.640;23.380;2022-12-24T02:35:05;93867.19;;;5.14;100.00
11808;BME280;5961;42.640;23.380;2022-12-24T02:37:36;93880.06;;;5.16;100.00
11808;BME280;5961;42.640;23.380;2022-12-24T02:40:07;93875.56;;;5.16;100.00
11808;BME280;5961;42.640;23.380;2022-12-24T02:42:39;93876.81;;;5.19;100.00
11808;BME280;5961;42.640;23.380;2022-12-24T02:45:10;93874.19;;;5.19;100.00
11808;BME280;5961;42.640;23.380;2022-12-24T02:47:40;93801.94;;;4.80;100.00
11808;BME280;5961;42.640;23.380;2022-12-24T02:50:09;93871.59;;;5.27;100.00
11808;BME280;5961;42.640;23.380;2022-12-24T02:52:38;93866.50;;;5.31;100.00
11808;BME280;5961;42.640;23.380;2022-12-24T02:55:09;93876.44;;;5.34;100.00
11808;BME280;5961;42.640;23.380;2022-12-24T02:57:50;93849.00;;;5.35;100.00
11808;BME280;5961;42.640;23.380;2022-12-24T03:00:24;93819.13;;;5.09;100.00
11808;BME280;5961;42.640;23.380;2022-12-24T03:03:11;93869.78;;;5.36;98.69
11808;BME280;5961;42.640;23.380;2022-12-24T03:05:47;93850.06;;;5.25;98.74
11808;BME280;5961;42.640;23.380;2022-12-24T03:08:23;93854.41;;;5.30;99.29
11808;BME280;5961;42.640;23.380;2022-12-24T03:11:01;93828.28;;;5.11;99.09
11808;BME280;5961;42.640;23.380;2022-12-24T03:13:28;93859.91;;;5.20;96.77
11808;BME280;5961;42.640;23.380;2022-12-24T03:15:57;93862.28;;;5.21;96.23
11808;BME280;5961;42.640;23.380;2022-12-24T03:18:25;93855.28;;;5.17;97.72
11808;BME280;5961;42.640;23.380;2022-12-24T03:20:57;93858.56;;;5.22;97.60
11808;BME280;5961;42.640;23.380;2022-12-24T03:23:26;93848.28;;;5.12;97.27
11808;BME280;5961;42.640;23.380;2022-12-24T03:25:53;93852.16;;;5.15;96.51
11808;BME280;5961;42.640;23.380;2022-12-24T03:28:24;93861.47;;;5.21;97.06
11808;BME280;5961;42.640;23.380;2022-12-24T03:30:51;93866.56;;;5.17;95.72
11808;BME280;5961;42.640;23.380;2022-12-24T03:33:20;93861.25;;;5.09;95.85
11808;BME280;5961;42.640;23.380;2022-12-24T03:35:47;93857.44;;;5.15;95.52
11808;BME280;5961;42.640;23.380;2022-12-24T03:38:13;93862.00;;;5.01;94.96
11808;BME280;5961;42.640;23.380;2022-12-24T03:40:40;93864.03;;;4.81;94.91
11808;BME280;5961;42.640;23.380;2022-12-24T03:43:07;93862.50;;;4.80;95.73
11808;BME280;5961;42.640;23.380;2022-12-24T03:45:33;93851.84;;;4.63;94.95
11808;BME280;5961;42.640;23.380;2022-12-24T03:48:00;93860.41;;;4.33;97.09
11808;BME280;5961;42.640;23.380;2022-12-24T03:50:28;93847.78;;;4.21;97.56
11808;BME280;5961;42.640;23.380;2022-12-24T03:52:55;93844.25;;;4.04;98.86
11808;BME280;5961;42.640;23.380;2022-12-24T03:55:22;93855.22;;;4.06;98.81
11808;BME280;5961;42.640;23.380;2022-12-24T03:57:49;93856.41;;;4.00;99.30
11808;BME280;5961;42.640;23.380;2022-12-24T04:00:17;93851.47;;;3.98;98.87
11808;BME280;5961;42.640;23.380;2022-12-24T04:02:44;93858.56;;;3.98;99.53
11808;BME280;5961;42.640;23.380;2022-12-24T04:05:14;93870.34;;;4.00;99.58
11808;BME280;5961;42.640;23.380;2022-12-24T04:07:43;93866.16;;;3.99;99.29
11808;BME280;5961;42.640;23.380;2022-12-24T04:10:11;93863.91;;;4.06;99.13
11808;BME280;5961;42.640;23.380;2022-12-24T04:12:38;93875.00;;;4.03;98.65
11808;BME280;5961;42.640;23.380;2022-12-24T04:15:06;93872.97;;;4.00;100.00
11808;BME280;5961;42.640;23.380;2022-12-24T04:17:33;93868.97;;;4.03;99.37
11808;BME280;5961;42.640;23.380;2022-12-24T04:20:00;93881.31;;;4.16;98.75
11808;BME280;5961;42.640;23.380;2022-12-24T04:22:26;93881.59;;;4.14;98.45
11808;BME280;5961;42.640;23.380;2022-12-24T04:24:54;93884.94;;;4.20;98.95
11808;BME280;5961;42.640;23.380;2022-12-24T04:27:21;93886.66;;;4.24;98.92
11808;BME280;5961;42.640;23.380;2022-12-24T04:29:48;93878.56;;;4.21;98.71
11808;BME280;5961;42.640;23.380;2022-12-24T04:32:15;93883.56;;;4.22;99.56
11808;BME280;5961;42.640;23.380;2022-12-24T04:34:41;93887.50;;;4.33;100.00
11808;BME280;5961;42.640;23.380;2022-12-24T04:37:08;93899.88;;;4.33;100.00
11808;BME280;5961;42.640;23.380;2022-12-24T04:39:35;93887.22;;;4.35;100.00
11808;BME280;5961;42.640;23.380;2022-12-24T04:42:03;93898.59;;;4.44;100.00
11808;BME280;5961;42.640;23.380;2022-12-24T04:44:30;93899.75;;;4.52;100.00
11808;BME280;5961;42.640;23.380;2022-12-24T04:46:57;93903.22;;;4.61;100.00
11808;BME280;5961;42.640;23.380;2022-12-24T04:49:23;93909.75;;;4.63;100.00
11808;BME280;5961;42.640;23.380;2022-12-24T04:51:50;93911.31;;;4.64;100.00
11808;BME280;5961;42.640;23.380;2022-12-24T04:54:17;93907.09;;;4.63;100.00
11808;BME280;5961;42.640;23.380;2022-12-24T04:56:43;93892.41;;;4.62;100.00
11808;BME280;5961;42.640;23.380;2022-12-24T04:59:11;93898.63;;;4.66;100.00
11808;BME280;5961;42.640;23.380;2022-12-24T05:01:38;93902.22;;;4.70;100.00
11808;BME280;5961;42.640;23.380;2022-12-24T05:04:05;93895.88;;;4.71;100.00
11808;BME280;5961;42.640;23.380;2022-12-24T05:06:32;93893.13;;;4.76;100.00
11808;BME280;5961;42.640;23.380;2022-12-24T05:08:59;93897.31;;;4.77;100.00
11808;BME280;5961;42.640;23.380;2022-12-24T05:11:26;93889.59;;;4.81;100.00
11808;BME280;5961;42.640;23.380;2022-12-24T05:13:54;93885.69;;;4.78;100.00
11808;BME280;5961;42.640;23.380;2022-12-24T05:16:22;93881.16;;;4.70;100.00
11808;BME280;5961;42.640;23.380;2022-12-24T05:18:49;93872.94;;;4.72;100.00
11808;BME280;5961;42.640;23.380;2022-12-24T05:21:18;93876.19;;;4.69;99.64
11808;BME280;5961;42.640;23.380;2022-12-24T05:23:46;93862.78;;;4.57;98.16
11808;BME280;5961;42.640;23.380;2022-12-24T05:26:34;93875.53;;;4.63;97.52
11808;BME280;5961;42.640;23.380;2022-12-24T05:29:02;93864.16;;;4.54;96.41
11808;BME280;5961;42.640;23.380;2022-12-24T05:31:32;93875.69;;;4.44;96.24
11808;BME280;5961;42.640;23.380;2022-12-24T05:33:59;93856.84;;;4.29;95.69
11808;BME280;5961;42.640;23.380;2022-12-24T05:36:26;93825.84;;;4.04;96.38
11808;BME280;5961;42.640;23.380;2022-12-24T05:38:53;93883.31;;;4.32;97.21
11808;BME280;5961;42.640;23.380;2022-12-24T05:41:20;93864.47;;;4.17;97.01
11808;BME280;5961;42.640;23.380;2022-12-24T05:43:47;93868.06;;;4.21;98.03
11808;BME280;5961;42.640;23.380;2022-12-24T05:46:16;93872.06;;;4.18;98.24
11808;BME280;5961;42.640;23.380;2022-12-24T05:48:46;93865.06;;;4.14;98.69
11808;BME280;5961;42.640;23.380;2022-12-24T05:51:14;93869.81;;;4.12;99.05
11808;BME280;5961;42.640;23.380;2022-12-24T05:53:43;93869.47;;;4.05;98.84
11808;BME280;5961;42.640;23.380;2022-12-24T05:56:11;93832.00;;;3.85;99.45
11808;BME280;5961;42.640;23.380;2022-12-24T05:58:39;93864.50;;;4.03;99.38
11808;BME280;5961;42.640;23.380;2022-12-24T06:01:06;93828.13;;;3.69;99.92
11808;BME280;5961;42.640;23.380;2022-12-24T06:03:33;93857.13;;;3.92;99.63
11808;BME280;5961;42.640;23.380;2022-12-24T06:06:04;93875.03;;;3.90;99.84
11808;BME280;5961;42.640;23.380;2022-12-24T06:08:32;93875.03;;;3.76;99.61
11808;BME280;5961;42.640;23.380;2022-12-24T06:11:01;93869.88;;;3.84;99.98
11808;BME280;5961;42.640;23.380;2022-12-24T06:13:28;93861.63;;;3.77;100.00
11808;BME280;5961;42.640;23.380;2022-12-24T06:15:56;93876.38;;;3.87;100.00
11808;BME280;5961;42.640;23.380;2022-12-24T06:18:24;93870.75;;;3.66;99.34
11808;BME280;5961;42.640;23.380;2022-12-24T06:20:51;93886.91;;;3.73;99.19
11808;BME280;5961;42.640;23.380;2022-12-24T06:23:20;93889.66;;;3.68;98.75
11808;BME280;5961;42.640;23.380;2022-12-24T06:25:47;93894.69;;;3.51;99.32
11808;BME280;5961;42.640;23.380;2022-12-24T06:28:14;93896.81;;;3.22;100.00
11808;BME280;5961;42.640;23.380;2022-12-24T06:30:45;93886.50;;;3.25;100.00
11808;BME280;5961;42.640;23.380;2022-12-24T06:33:12;93890.56;;;3.18;100.00
11808;BME280;5961;42.640;23.380;2022-12-24T06:35:39;93893.03;;;3.28;100.00
11808;BME280;5961;42.640;23.380;2022-12-24T06:38:06;93895.06;;;3.31;100.00
11808;BME280;5961;42.640;23.380;2022-12-24T06:40:34;93894.59;;;3.29;100.00
11808;BME280;5961;42.640;23.380;2022-12-24T06:43:00;93901.88;;;3.32;100.00
11808;BME280;5961;42.640;23.380;2022-12-24T06:45:27;93902.91;;;3.17;100.00
11808;BME280;5961;42.640;23.380;2022-12-24T06:47:54;93916.25;;;3.21;100.00
11808;BME280;5961;42.640;23.380;2022-12-24T06:50:20;93909.06;;;3.26;100.00
11808;BME280;5961;42.640;23.380;2022-12-24T06:52:47;93910.03;;;3.17;100.00
11808;BME280;5961;42.640;23.380;2022-12-24T06:55:14;93920.91;;;3.24;100.00
11808;BME280;5961;42.640;23.380;2022-12-24T06:57:42;93918.22;;;3.29;100.00
11808;BME280;5961;42.640;23.380;2022-12-24T07:00:10;93915.59;;;3.29;100.00
11808;BME280;5961;42.640;23.380;2022-12-24T07:02:38;93914.34;;;3.40;100.00
11808;BME280;5961;42.640;23.380;2022-12-24T07:05:05;93924.25;;;3.43;100.00
11808;BME280;5961;42.640;23.380;2022-12-24T07:07:34;93923.59;;;3.51;100.00
11808;BME280;5961;42.640;23.380;2022-12-24T07:10:01;93919.22;;;3.60;100.00
11808;BME280;5961;42.640;23.380;2022-12-24T07:12:27;93919.31;;;3.69;100.00
11808;BME280;5961;42.640;23.380;2022-12-24T07:14:55;93907.34;;;3.63;99.96
11808;BME280;5961;42.640;23.380;2022-12-24T07:17:22;93915.91;;;3.82;98.85
11808;BME280;5961;42.640;23.380;2022-12-24T07:19:49;93915.13;;;3.81;98.86
11808;BME280;5961;42.640;23.380;2022-12-24T07:22:15;93917.09;;;3.90;98.39
11808;BME280;5961;42.640;23.380;2022-12-24T07:24:42;93922.25;;;3.95;98.80
11808;BME280;5961;42.640;23.380;2022-12-24T07:27:09;93918.63;;;3.91;99.15
11808;BME280;5961;42.640;23.380;2022-12-24T07:29:35;93914.06;;;3.96;99.21
11808;BME280;5961;42.640;23.380;2022-12-24T07:32:04;93923.50;;;3.97;99.71
11808;BME280;5961;42.640;23.380;2022-12-24T07:34:31;93916.22;;;3.94;100.00
11808;BME280;5961;42.640;23.380;2022-12-24T07:36:58;93898.78;;;3.84;100.00
11808;BME280;5961;42.640;23.380;2022-12-24T07:39:24;93922.34;;;4.03;100.00
11808;BME280;5961;42.640;23.380;2022-12-24T07:41:51;93919.13;;;4.06;100.00
11808;BME280;5961;42.640;23.380;2022-12-24T07:44:18;93926.31;;;4.14;100.00
11808;BME280;5961;42.640;23.380;2022-12-24T07:46:45;93927.00;;;4.20;100.00
11808;BME280;5961;42.640;23.380;2022-12-24T07:49:13;93932.63;;;4.27;100.00
11808;BME280;5961;42.640;23.380;2022-12-24T07:51:39;93936.44;;;4.34;100.00
11808;BME280;5961;42.640;23.380;2022-12-24T07:54:06;93927.38;;;4.63;100.00
11808;BME280;5961;42.640;23.380;2022-12-24T07:56:33;93930.19;;;4.66;100.00
11808;BME280;5961;42.640;23.380;2022-12-24T07:59:00;93934.88;;;4.69;100.00
11808;BME280;5961;42.640;23.380;2022-12-24T08:01:27;93947.69;;;4.84;100.00
11808;BME280;5961;42.640;23.380;2022-12-24T08:03:53;93952.97;;;4.84;100.00
11808;BME280;5961;42.640;23.380;2022-12-24T08:06:21;93958.59;;;4.91;100.00
11808;BME280;5961;42.640;23.380;2022-12-24T08:08:49;93952.75;;;4.94;100.00
11808;BME280;5961;42.640;23.380;2022-12-24T08:11:15;93946.88;;;4.97;100.00
11808;BME280;5961;42.640;23.380;2022-12-24T08:13:42;93964.34;;;5.16;100.00
11808;BME280;5961;42.640;23.380;2022-12-24T08:16:09;93963.44;;;5.20;100.00
11808;BME280;5961;42.640;23.380;2022-12-24T08:18:35;93941.91;;;5.18;100.00
11808;BME280;5961;42.640;23.380;2022-12-24T08:21:05;93968.13;;;5.45;100.00
11808;BME280;5961;42.640;23.380;2022-12-24T08:23:33;93975.00;;;5.55;99.91
11808;BME280;5961;42.640;23.380;2022-12-24T08:26:00;93976.59;;;5.65;100.00
11808;BME280;5961;42.640;23.380;2022-12-24T08:28:27;93965.47;;;5.68;99.11
11808;BME280;5961;42.640;23.380;2022-12-24T08:30:53;93968.31;;;5.80;99.26
11808;BME280;5961;42.640;23.380;2022-12-24T08:33:20;93972.53;;;5.89;99.16
11808;BME280;5961;42.640;23.380;2022-12-24T08:35:48;93970.72;;;5.98;98.74
11808;BME280;5961;42.640;23.380;2022-12-24T08:38:15;93975.56;;;6.05;98.32
11808;BME280;5961;42.640;23.380;2022-12-24T08:40:43;93959.63;;;6.10;98.32
11808;BME280;5961;42.640;23.380;2022-12-24T08:43:11;93948.91;;;6.15;97.88
11808;BME280;5961;42.640;23.380;2022-12-24T08:45:38;93953.41;;;6.15;98.29
11808;BME280;5961;42.640;23.380;2022-12-24T08:48:05;93952.97;;;6.21;98.89
11808;BME280;5961;42.640;23.380;2022-12-24T08:50:32;93943.38;;;6.25;99.13
11808;BME280;5961;42.640;23.380;2022-12-24T08:52:59;93936.69;;;6.28;98.91
11808;BME280;5961;42.640;23.380;2022-12-24T08:55:26;93945.06;;;6.21;99.01
11808;BME280;5961;42.640;23.380;2022-12-24T08:57:54;93950.78;;;6.23;98.70
11808;BME280;5961;42.640;23.380;2022-12-24T09:00:21;93910.25;;;6.11;99.02
11808;BME280;5961;42.640;23.380;2022-12-24T09:02:48;93946.16;;;6.29;98.71
11808;BME280;5961;42.640;23.380;2022-12-24T09:05:15;93945.84;;;6.30;97.80
11808;BME280;5961;42.640;23.380;2022-12-24T09:07:42;93960.13;;;6.38;97.76
11808;BME280;5961;42.640;23.380;2022-12-24T09:10:10;93960.63;;;6.40;97.30
11808;BME280;5961;42.640;23.380;2022-12-24T09:12:37;93954.72;;;6.43;97.28
11808;BME280;5961;42.640;23.380;2022-12-24T09:15:06;93948.84;;;6.46;97.04
11808;BME280;5961;42.640;23.380;2022-12-24T09:17:33;93954.59;;;6.48;96.83
11808;BME280;5961;42.640;23.380;2022-12-24T09:20:00;93957.69;;;6.50;96.38
11808;BME280;5961;42.640;23.380;2022-12-24T09:22:27;93945.44;;;6.54;96.34
11808;BME280;5961;42.640;23.380;2022-12-24T09:24:54;93947.16;;;6.58;95.87
11808;BME280;5961;42.640;23.380;2022-12-24T09:27:21;93943.56;;;6.63;95.69
11808;BME280;5961;42.640;23.380;2022-12-24T09:29:48;93939.41;;;6.71;95.63
11808;BME280;5961;42.640;23.380;2022-12-24T09:32:16;93947.94;;;6.76;95.26
11808;BME280;5961;42.640;23.380;2022-12-24T09:34:42;93938.47;;;6.75;94.81
11808;BME280;5961;42.640;23.380;2022-12-24T09:37:09;93941.59;;;6.86;94.61
11808;BME280;5961;42.640;23.380;2022-12-24T09:39:36;93944.84;;;6.91;95.24
11808;BME280;5961;42.640;23.380;2022-12-24T09:42:12;93937.38;;;6.93;94.89
11808;BME280;5961;42.640;23.380;2022-12-24T09:44:44;93937.38;;;7.02;94.29
11808;BME280;5961;42.640;23.380;2022-12-24T09:47:21;93948.56;;;7.07;94.19
11808;BME280;5961;42.640;23.380;2022-12-24T09:49:52;93936.47;;;7.06;94.35
11808;BME280;5961;42.640;23.380;2022-12-24T09:52:27;93942.34;;;7.12;94.60
11808;BME280;5961;42.640;23.380;2022-12-24T09:54:57;93935.50;;;7.19;93.59
11808;BME280;5961;42.640;23.380;2022-12-24T09:57:30;93935.50;;;7.19;92.77
11808;BME280;5961;42.640;23.380;2022-12-24T10:00:00;93942.34;;;7.21;93.04
11808;BME280;5961;42.640;23.380;2022-12-24T10:02:30;93940.78;;;7.19;93.08
11808;BME280;5961;42.640;23.380;2022-12-24T10:04:57;93930.38;;;7.23;93.38
11808;BME280;5961;42.640;23.380;2022-12-24T10:07:34;93937.38;;;7.10;92.23
11808;BME280;5961;42.640;23.380;2022-12-24T10:10:14;93950.56;;;7.10;93.57
11808;BME280;5961;42.640;23.380;2022-12-24T10:12:48;93946.41;;;7.09;93.77
11808;BME280;5961;42.640;23.380;2022-12-24T10:15:24;93935.84;;;7.09;94.01
11808;BME280;5961;42.640;23.380;2022-12-24T10:18:05;93938.78;;;7.08;93.43
11808;BME280;5961;42.640;23.380;2022-12-24T10:20:41;93925.56;;;6.99;92.97
11808;BME280;5961;42.640;23.380;2022-12-24T10:23:16;93939.41;;;6.96;93.32
11808;BME280;5961;42.640;23.380;2022-12-24T10:25:48;93914.38;;;6.94;94.44
11808;BME280;5961;42.640;23.380;2022-12-24T10:28:20;93923.09;;;6.94;94.23
11808;BME280;5961;42.640;23.380;2022-12-24T10:30:48;93934.28;;;7.00;94.16
11808;BME280;5961;42.640;23.380;2022-12-24T10:33:24;93905.06;;;6.79;93.87
11808;BME280;5961;42.640;23.380;2022-12-24T10:35:54;93912.81;;;6.93;93.80
11808;BME280;5961;42.640;23.380;2022-12-24T10:38:22;93929.59;;;7.05;93.10
11808;BME280;5961;42.640;23.380;2022-12-24T10:40:50;93939.41;;;7.05;93.76
11808;BME280;5961;42.640;23.380;2022-12-24T10:43:19;93923.09;;;7.03;93.30
11808;BME280;5961;42.640;23.380;2022-12-24T10:45:49;93923.53;;;7.05;93.16
11808;BME280;5961;42.640;23.380;2022-12-24T10:48:21;93930.56;;;7.01;93.27
11808;BME280;5961;42.640;23.380;2022-12-24T10:50:53;93912.19;;;7.04;94.01
11808;BME280;5961;42.640;23.380;2022-12-24T10:53:25;93905.19;;;7.08;94.33
11808;BME280;5961;42.640;23.380;2022-12-24T10:56:01;93908.78;;;7.12;94.33
11808;BME280;5961;42.640;23.380;2022-12-24T10:58:29;93916.72;;;7.12;94.56
11808;BME280;5961;42.640;23.380;2022-12-24T11:00:56;93927.25;;;7.21;94.03
11808;BME280;5961;42.640;23.380;2022-12-24T11:03:29;93919.00;;;7.23;93.70
11808;BME280;5961;42.640;23.380;2022-12-24T11:06:10;93918.25;;;7.13;94.85
11808;BME280;5961;42.640;23.380;2022-12-24T11:08:39;93922.13;;;7.07;93.80
11808;BME280;5961;42.640;23.380;2022-12-24T11:11:07;93912.34;;;7.08;94.16
11808;BME280;5961;42.640;23.380;2022-12-24T11:13:37;93862.66;;;6.67;94.78
11808;BME280;5961;42.640;23.380;2022-12-24T11:16:07;93931.00;;;7.11;95.05
11808;BME280;5961;42.640;23.380;2022-12-24T11:18:44;93923.38;;;7.18;95.35
11808;BME280;5961;42.640;23.380;2022-12-24T11:21:19;93932.41;;;7.17;94.78
11808;BME280;5961;42.640;23.380;2022-12-24T11:23:49;93879.72;;;7.04;94.51
11808;BME280;5961;42.640;23.380;2022-12-24T11:26:20;93908.91;;;7.25;94.23
11808;BME280;5961;42.640;23.380;2022-12-24T11:29:03;93911.06;;;7.23;93.76
11808;BME280;5961;42.640;23.380;2022-12-24T11:31:30;93901.28;;;7.23;93.23
11808;BME280;5961;42.640;23.380;2022-12-24T11:34:17;93905.47;;;7.33;93.22
11808;BME280;5961;42.640;23.380;2022-12-24T11:36:44;93920.56;;;7.32;93.65
11808;BME280;5961;42.640;23.380;2022-12-24T11:39:18;93925.06;;;7.40;94.65
11808;BME280;5961;42.640;23.380;2022-12-24T11:41:47;93932.97;;;7.49;94.60
11808;BME280;5961;42.640;23.380;2022-12-24T11:44:24;93924.69;;;7.59;94.15
11808;BME280;5961;42.640;23.380;2022-12-24T11:46:52;93924.97;;;7.74;93.10
11808;BME280;5961;42.640;23.380;2022-12-24T11:49:24;93929.25;;;7.96;93.13
11808;BME280;5961;42.640;23.380;2022-12-24T11:54:49;93919.28;;;8.31;90.71
11808;BME280;5961;42.640;23.380;2022-12-24T11:57:19;93896.09;;;8.28;89.91
11808;BME280;5961;42.640;23.380;2022-12-24T11:59:49;93921.50;;;8.50;89.69
11808;BME280;5961;42.640;23.380;2022-12-24T12:02:19;93916.28;;;8.62;88.97
11808;BME280;5961;42.640;23.380;2022-12-24T12:04:52;93927.16;;;8.69;88.19
11808;BME280;5961;42.640;23.380;2022-12-24T12:07:23;93908.63;;;8.69;88.13
11808;BME280;5961;42.640;23.380;2022-12-24T12:09:55;93913.28;;;8.72;88.13
11808;BME280;5961;42.640;23.380;2022-12-24T12:12:25;93909.41;;;8.69;88.30
11808;BME280;5961;42.640;23.380;2022-12-24T12:14:55;93917.06;;;8.83;88.23
11808;BME280;5961;42.640;23.380;2022-12-24T12:17:29;93916.44;;;8.86;88.07
11808;BME280;5961;42.640;23.380;2022-12-24T12:20:02;93912.69;;;8.87;87.93
11808;BME280;5961;42.640;23.380;2022-12-24T12:22:34;93915.78;;;8.89;87.45
11808;BME280;5961;42.640;23.380;2022-12-24T12:25:16;93916.06;;;8.96;87.36
11808;BME280;5961;42.640;23.380;2022-12-24T12:27:46;93925.84;;;8.54;86.42
11808;BME280;5961;42.640;23.380;2022-12-24T12:30:16;93911.97;;;8.99;87.24
11808;BME280;5961;42.640;23.380;2022-12-24T12:32:51;93897.69;;;8.91;85.64
11808;BME280;5961;42.640;23.380;2022-12-24T12:35:25;93908.81;;;9.05;85.77
11808;BME280;5961;42.640;23.380;2022-12-24T12:37:56;93917.00;;;9.12;86.06
11808;BME280;5961;42.640;23.380;2022-12-24T12:40:35;93882.25;;;8.93;86.30
11808;BME280;5961;42.640;23.380;2022-12-24T12:43:08;93917.25;;;9.19;85.24
11808;BME280;5961;42.640;23.380;2022-12-24T12:45:46;93916.16;;;9.20;85.29
11808;BME280;5961;42.640;23.380;2022-12-24T12:51:25;93920.03;;;9.23;86.64
11808;BME280;5961;42.640;23.380;2022-12-24T12:54:08;93918.38;;;9.18;87.32
11808;BME280;5961;42.640;23.380;2022-12-24T12:56:40;93921.47;;;9.20;87.68
11808;BME280;5961;42.640;23.380;2022-12-24T12:59:14;93930.38;;;9.16;87.06
11808;BME280;5961;42.640;23.380;2022-12-24T13:01:48;93930.13;;;9.09;86.04
11808;BME280;5961;42.640;23.380;2022-12-24T13:07:54;93920.56;;;8.96;86.39
11808;BME280;5961;42.640;23.380;2022-12-24T13:10:52;93939.53;;;9.06;87.30
11808;BME280;5961;42.640;23.380;2022-12-24T13:13:40;93945.00;;;9.01;86.24
11808;BME280;5961;42.640;23.380;2022-12-24T13:16:30;93943.69;;;9.07;86.30
11808;BME280;5961;42.640;23.380;2022-12-24T13:19:08;93941.25;;;9.02;86.77
11808;BME280;5961;42.640;23.380;2022-12-24T13:21:42;93947.06;;;8.96;87.09
11808;BME280;5961;42.640;23.380;2022-12-24T13:24:16;93949.06;;;8.99;86.36
11808;BME280;5961;42.640;23.380;2022-12-24T13:27:01;93960.00;;;8.97;86.42
11808;BME280;5961;42.640;23.380;2022-12-24T13:29:37;93965.97;;;8.94;86.61
11808;BME280;5961;42.640;23.380;2022-12-24T13:32:45;93968.78;;;8.89;86.73
11808;BME280;5961;42.640;23.380;2022-12-24T13:35:33;93979.13;;;8.82;86.91